Time;durP1;ratioP1;P1;durP2;ratioP2;P2;SDS_P1;SDS_P2;PMS_P1;PMS_P2;Temp;Humidity;BMP_temperature;BMP_pressure;BME280_temperature;BME280_humidity;BME280_pressure;Samples;Min_cycle;Max_cycle;Signal;HPM_P1;HPM_P2
2022/07/04 00:00:51;;;;;;;;;5.60;5.60;;;;;;;;5016336;28;8759;-80
2022/07/04 00:03:18;;;;;;;;;6.60;6.40;;;;;;;;5027420;28;8812;-76
2022/07/04 00:05:44;;;;;;;;;6.00;6.00;;;;;;;;5035255;28;8811;-75
2022/07/04 00:08:11;;;;;;;;;5.40;5.40;;;;;;;;5035250;28;8784;-76
2022/07/04 00:10:37;;;;;;;;;7.00;5.80;;;;;;;;5035014;28;9001;-76
2022/07/04 00:13:05;;;;;;;;;8.40;7.80;;;;;;;;5036954;28;8897;-76
2022/07/04 00:15:32;;;;;;;;;8.80;8.40;;;;;;;;5034611;28;8795;-75
2022/07/04 00:17:58;;;;;;;;;9.40;7.20;;;;;;;;5034861;28;8814;-76
2022/07/04 00:20:25;;;;;;;;;10.00;8.20;;;;;;;;5034446;28;8919;-76
2022/07/04 00:22:52;;;;;;;;;6.00;6.00;;;;;;;;5035128;28;8769;-75
2022/07/04 00:25:18;;;;;;;;;10.60;10.00;;;;;;;;5019052;28;9538;-76
2022/07/04 00:27:45;;;;;;;;;11.00;8.00;;;;;;;;5018346;28;8782;-80
2022/07/04 00:30:12;;;;;;;;;15.00;8.60;;;;;;;;5018484;28;8824;-76
2022/07/04 00:32:39;;;;;;;;;7.20;7.20;;;;;;;;5014536;28;9463;-76
2022/07/04 00:35:06;;;;;;;;;9.00;6.40;;;;;;;;5014240;28;8868;-75
2022/07/04 00:37:33;;;;;;;;;9.40;7.40;;;;;;;;5014769;28;8759;-75
2022/07/04 00:39:59;;;;;;;;;9.40;8.00;;;;;;;;4999349;28;8802;-75
2022/07/04 00:42:26;;;;;;;;;3.80;2.40;;;;;;;;4998173;28;9485;-75
2022/07/04 00:44:53;;;;;;;;;8.60;7.00;;;;;;;;5015928;28;8869;-75
2022/07/04 00:47:19;;;;;;;;;10.80;6.00;;;;;;;;5018615;28;8804;-76
2022/07/04 00:49:46;;;;;;;;;8.60;6.20;;;;;;;;5035308;28;8898;-76
2022/07/04 00:52:13;;;;;;;;;10.80;4.60;;;;;;;;5035093;28;8764;-76
2022/07/04 00:54:39;;;;;;;;;7.60;6.00;;;;;;;;5017666;28;8861;-80
2022/07/04 00:57:06;;;;;;;;;3.80;3.80;;;;;;;;5034138;28;8841;-76
2022/07/04 00:59:33;;;;;;;;;4.20;4.20;;;;;;;;5017609;28;8760;-76
2022/07/04 01:01:59;;;;;;;;;5.60;5.00;;;;;;;;5035214;28;8816;-76
2022/07/04 01:04:26;;;;;;;;;5.40;4.60;;;;;;;;5034096;28;8792;-75
2022/07/04 01:06:53;;;;;;;;;4.20;3.20;;;;;;;;5036052;28;8744;-75
2022/07/04 01:09:20;;;;;;;;;5.20;4.20;;;;;;;;5017408;28;8794;-76
2022/07/04 01:11:50;;;;;;;;;5.80;3.40;;;;;;;;5035293;28;8788;-76
2022/07/04 01:14:17;;;;;;;;;5.60;4.20;;;;;;;;5033942;28;8772;-76
2022/07/04 01:16:46;;;;;;;;;3.00;3.00;;;;;;;;5035242;28;8764;-75
2022/07/04 01:19:13;;;;;;;;;4.60;4.00;;;;;;;;5034156;28;8804;-76
2022/07/04 01:21:40;;;;;;;;;3.40;3.00;;;;;;;;5033690;28;8885;-76
2022/07/04 01:24:06;;;;;;;;;4.00;2.00;;;;;;;;5033888;28;8800;-75
2022/07/04 01:26:33;;;;;;;;;4.80;2.40;;;;;;;;5017183;28;8788;-76
2022/07/04 01:29:00;;;;;;;;;4.00;2.80;;;;;;;;5033311;28;8796;-76
2022/07/04 01:31:27;;;;;;;;;3.00;3.00;;;;;;;;5034863;28;8850;-76
2022/07/04 01:33:54;;;;;;;;;4.80;3.20;;;;;;;;5014074;28;8929;-76
2022/07/04 01:36:20;;;;;;;;;7.20;5.80;;;;;;;;5013588;28;8901;-81
2022/07/04 01:38:47;;;;;;;;;5.40;2.40;;;;;;;;4997510;28;8881;-76
2022/07/04 01:41:14;;;;;;;;;9.60;4.80;;;;;;;;5013926;28;8779;-76
2022/07/04 01:43:41;;;;;;;;;4.20;4.20;;;;;;;;5013687;28;8775;-76
2022/07/04 01:46:08;;;;;;;;;6.00;5.00;;;;;;;;5015380;28;8751;-75
2022/07/04 01:48:35;;;;;;;;;8.80;7.40;;;;;;;;5028450;28;8804;-76
2022/07/04 01:51:03;;;;;;;;;9.20;9.00;;;;;;;;5033519;28;9454;-76
2022/07/04 01:53:30;;;;;;;;;10.40;8.60;;;;;;;;5033099;28;8807;-76
2022/07/04 01:55:57;;;;;;;;;10.60;8.60;;;;;;;;5033573;28;8768;-76
2022/07/04 01:58:26;;;;;;;;;13.40;10.00;;;;;;;;5033071;28;8806;-76
2022/07/04 02:03:40;;;;;;;;;10.80;9.00;;;;;;;;5032991;28;8792;-76
2022/07/04 02:06:07;;;;;;;;;8.20;6.20;;;;;;;;5033226;28;8783;-76
2022/07/04 02:11:21;;;;;;;;;8.40;7.80;;;;;;;;5032979;28;8792;-76
2022/07/04 02:13:48;;;;;;;;;8.00;6.80;;;;;;;;5032783;28;8799;-75
2022/07/04 02:16:15;;;;;;;;;7.80;6.20;;;;;;;;5033859;28;8776;-75
2022/07/04 02:18:42;;;;;;;;;9.20;5.80;;;;;;;;5032650;28;8808;-75
2022/07/04 02:21:09;;;;;;;;;9.00;6.40;;;;;;;;5034887;28;8948;-79
2022/07/04 02:23:36;;;;;;;;;6.00;6.00;;;;;;;;5033656;28;8780;-75
2022/07/04 02:26:03;;;;;;;;;5.60;4.60;;;;;;;;5033965;28;8927;-80
2022/07/04 02:28:30;;;;;;;;;3.40;2.60;;;;;;;;5016639;28;8776;-75
2022/07/04 02:30:57;;;;;;;;;2.00;1.80;;;;;;;;5034889;28;8817;-75
2022/07/04 02:33:24;;;;;;;;;4.80;4.00;;;;;;;;5048209;28;8815;-75
2022/07/04 02:35:51;;;;;;;;;4.80;4.20;;;;;;;;5036270;28;8763;-76
2022/07/04 02:38:17;;;;;;;;;5.80;3.20;;;;;;;;5019770;28;8774;-75
2022/07/04 02:40:44;;;;;;;;;5.00;4.40;;;;;;;;5035874;28;9438;-76
2022/07/04 02:43:11;;;;;;;;;6.00;4.40;;;;;;;;5020575;28;8801;-76
2022/07/04 02:45:38;;;;;;;;;4.80;3.20;;;;;;;;5036163;28;8798;-76
2022/07/04 02:48:05;;;;;;;;;6.00;4.20;;;;;;;;5036070;28;8818;-81
2022/07/04 02:50:31;;;;;;;;;7.00;6.00;;;;;;;;5036132;28;8767;-75
2022/07/04 02:52:58;;;;;;;;;6.00;6.00;;;;;;;;5036301;28;8801;-76
2022/07/04 02:55:24;;;;;;;;;6.20;4.20;;;;;;;;5019544;28;8791;-77
2022/07/04 02:57:51;;;;;;;;;7.60;6.00;;;;;;;;5054865;28;8766;-78
2022/07/04 03:00:18;;;;;;;;;4.60;4.60;;;;;;;;5057307;28;8801;-82
2022/07/04 03:02:45;;;;;;;;;4.40;4.00;;;;;;;;5039754;28;8889;-76
2022/07/04 03:05:11;;;;;;;;;4.00;4.00;;;;;;;;5039781;28;8755;-83
2022/07/04 03:07:38;;;;;;;;;6.00;4.00;;;;;;;;5039803;28;8774;-76
2022/07/04 03:10:05;;;;;;;;;6.20;4.20;;;;;;;;5023831;28;8798;-76
2022/07/04 03:12:31;;;;;;;;;5.80;4.20;;;;;;;;5056811;28;8778;-76
2022/07/04 03:14:59;;;;;;;;;3.20;3.00;;;;;;;;5039530;28;8814;-81
2022/07/04 03:17:26;;;;;;;;;3.20;3.00;;;;;;;;5056721;28;8786;-83
2022/07/04 03:19:52;;;;;;;;;3.60;2.20;;;;;;;;5023161;28;8829;-76
2022/07/04 03:22:19;;;;;;;;;2.00;2.00;;;;;;;;5040109;28;8840;-76
2022/07/04 03:24:46;;;;;;;;;7.80;6.00;;;;;;;;5039368;28;8881;-76
2022/07/04 03:27:12;;;;;;;;;3.80;3.80;;;;;;;;5039467;28;8786;-77
2022/07/04 03:29:39;;;;;;;;;7.80;5.20;;;;;;;;5056976;28;8955;-75
2022/07/04 03:32:06;;;;;;;;;8.20;6.20;;;;;;;;5056768;28;8864;-76
2022/07/04 03:34:32;;;;;;;;;7.60;7.00;;;;;;;;5022479;28;8802;-82
2022/07/04 03:36:59;;;;;;;;;9.40;9.20;;;;;;;;5039479;28;8747;-83
2022/07/04 03:39:26;;;;;;;;;9.80;8.00;;;;;;;;5038734;28;8775;-77
2022/07/04 03:41:53;;;;;;;;;13.80;9.60;;;;;;;;5039260;28;8770;-81
2022/07/04 03:44:19;;;;;;;;;9.20;7.60;;;;;;;;5038939;28;8786;-75
2022/07/04 03:46:46;;;;;;;;;8.00;6.80;;;;;;;;5039222;28;8936;-75
2022/07/04 03:49:12;;;;;;;;;5.60;4.40;;;;;;;;5019571;28;8788;-76
2022/07/04 03:51:39;;;;;;;;;7.20;6.20;;;;;;;;5018959;28;9545;-75
2022/07/04 03:54:06;;;;;;;;;8.80;6.00;;;;;;;;5019130;28;8840;-76
2022/07/04 03:56:33;;;;;;;;;7.00;5.00;;;;;;;;5018733;28;8781;-76
2022/07/04 03:58:59;;;;;;;;;5.60;3.60;;;;;;;;5018752;28;8816;-76
2022/07/04 04:01:26;;;;;;;;;8.60;6.60;;;;;;;;5018899;28;8773;-76
2022/07/04 04:06:38;;;;;;;;;2.60;2.60;;;;;;;;5041083;28;8791;-75
2022/07/04 04:09:04;;;;;;;;;1.80;0.00;;;;;;;;5056243;28;8755;-76
2022/07/04 04:11:31;;;;;;;;;3.80;3.80;;;;;;;;5021059;28;8782;-76
2022/07/04 04:13:58;;;;;;;;;3.20;3.20;;;;;;;;5038762;28;8767;-83
2022/07/04 04:16:24;;;;;;;;;4.20;3.20;;;;;;;;5038302;28;8767;-76
2022/07/04 04:18:51;;;;;;;;;5.80;4.20;;;;;;;;5038665;28;9500;-76
2022/07/04 04:21:17;;;;;;;;;6.60;4.20;;;;;;;;5055823;28;8763;-81
2022/07/04 04:23:44;;;;;;;;;3.20;2.00;;;;;;;;5021848;28;8770;-87
2022/07/04 04:26:12;;;;;;;;;5.60;5.20;;;;;;;;5038552;28;8794;-75
2022/07/04 04:28:39;;;;;;;;;3.80;3.80;;;;;;;;5037966;28;8848;-75
2022/07/04 04:31:05;;;;;;;;;3.00;3.00;;;;;;;;5038671;28;8814;-75
2022/07/04 04:33:32;;;;;;;;;0.80;0.80;;;;;;;;5034217;28;8832;-76
2022/07/04 04:35:58;;;;;;;;;6.00;4.20;;;;;;;;5034529;28;8808;-76
2022/07/04 04:38:25;;;;;;;;;6.40;5.20;;;;;;;;5035497;28;8792;-75
2022/07/04 04:40:52;;;;;;;;;3.40;3.00;;;;;;;;5018339;28;8761;-75
2022/07/04 04:43:18;;;;;;;;;4.20;4.20;;;;;;;;5036322;28;8839;-75
2022/07/04 04:45:45;;;;;;;;;3.60;3.60;;;;;;;;5018128;28;8788;-75
2022/07/04 04:48:12;;;;;;;;;3.40;3.00;;;;;;;;5034193;28;8796;-75
2022/07/04 04:50:38;;;;;;;;;3.20;1.80;;;;;;;;5034207;28;8822;-80
2022/07/04 04:53:05;;;;;;;;;3.80;3.00;;;;;;;;5035573;28;8857;-75
2022/07/04 04:55:31;;;;;;;;;3.00;3.00;;;;;;;;5034069;28;9444;-75
2022/07/04 04:57:58;;;;;;;;;4.80;4.00;;;;;;;;5018621;28;8822;-75
2022/07/04 05:00:25;;;;;;;;;7.00;7.00;;;;;;;;5033961;28;8784;-82
2022/07/04 05:02:51;;;;;;;;;10.60;7.00;;;;;;;;5014409;28;8783;-82
2022/07/04 05:05:18;;;;;;;;;7.00;6.00;;;;;;;;5014346;28;8876;-75
2022/07/04 05:07:45;;;;;;;;;7.80;5.60;;;;;;;;4998384;28;8826;-76
2022/07/04 05:10:11;;;;;;;;;4.00;4.00;;;;;;;;5016266;28;8771;-75
2022/07/04 05:12:38;;;;;;;;;3.60;2.60;;;;;;;;5013895;28;8802;-75
2022/07/04 05:15:05;;;;;;;;;5.20;4.40;;;;;;;;5013694;28;8885;-75
2022/07/04 05:17:31;;;;;;;;;2.00;2.00;;;;;;;;5019433;28;8788;-80
2022/07/04 05:19:58;;;;;;;;;5.00;3.00;;;;;;;;5033973;28;8858;-75
2022/07/04 05:22:25;;;;;;;;;4.00;3.00;;;;;;;;5033937;28;9005;-77
2022/07/04 05:24:51;;;;;;;;;3.00;2.80;;;;;;;;5034773;28;8824;-80
2022/07/04 05:27:18;;;;;;;;;4.00;3.00;;;;;;;;5017226;28;8796;-82
2022/07/04 05:29:45;;;;;;;;;5.00;3.40;;;;;;;;5017423;28;8816;-75
2022/07/04 05:32:11;;;;;;;;;3.60;3.60;;;;;;;;5033526;28;8804;-75
2022/07/04 05:34:38;;;;;;;;;0.00;0.00;;;;;;;;5033611;28;8820;-75
2022/07/04 05:37:05;;;;;;;;;4.80;3.40;;;;;;;;5034411;28;8788;-76
2022/07/04 05:39:31;;;;;;;;;4.40;3.20;;;;;;;;5033191;28;8794;-75
2022/07/04 05:41:58;;;;;;;;;6.80;3.00;;;;;;;;5034816;28;8788;-75
2022/07/04 05:44:25;;;;;;;;;8.00;4.00;;;;;;;;5016859;28;8891;-80
2022/07/04 05:46:51;;;;;;;;;6.40;6.00;;;;;;;;5034714;28;8772;-75
2022/07/04 05:49:18;;;;;;;;;4.40;4.00;;;;;;;;5033996;28;8784;-75
2022/07/04 05:51:45;;;;;;;;;4.60;4.40;;;;;;;;5033252;28;8866;-75
2022/07/04 05:54:11;;;;;;;;;5.20;2.60;;;;;;;;5034446;28;8827;-76
2022/07/04 05:56:39;;;;;;;;;3.00;3.00;;;;;;;;5033139;28;8800;-75
2022/07/04 05:59:06;;;;;;;;;4.40;4.40;;;;;;;;5033288;28;8780;-75
2022/07/04 06:01:32;;;;;;;;;5.80;4.00;;;;;;;;5033287;28;8802;-75
2022/07/04 06:03:59;;;;;;;;;4.40;2.20;;;;;;;;5033711;28;8879;-75
2022/07/04 06:06:26;;;;;;;;;2.40;2.40;;;;;;;;5016726;28;8962;-76
2022/07/04 06:08:52;;;;;;;;;4.40;3.00;;;;;;;;5033019;28;8772;-75
2022/07/04 06:11:19;;;;;;;;;5.40;3.00;;;;;;;;5034345;28;8806;-79
2022/07/04 06:13:45;;;;;;;;;4.60;2.40;;;;;;;;5016961;28;8894;-75
2022/07/04 06:16:12;;;;;;;;;3.60;3.60;;;;;;;;5035127;28;9421;-75
2022/07/04 06:18:39;;;;;;;;;2.60;2.60;;;;;;;;5032715;28;8820;-75
2022/07/04 06:21:05;;;;;;;;;3.80;2.40;;;;;;;;5033108;28;8783;-75
2022/07/04 06:23:32;;;;;;;;;2.00;1.80;;;;;;;;5016384;28;8772;-75
2022/07/04 06:25:59;;;;;;;;;3.00;3.00;;;;;;;;5016913;28;8784;-75
2022/07/04 06:28:25;;;;;;;;;3.00;3.00;;;;;;;;5032449;28;9432;-76
2022/07/04 06:30:52;;;;;;;;;3.40;3.00;;;;;;;;5033440;28;8792;-75
2022/07/04 06:33:18;;;;;;;;;4.00;2.80;;;;;;;;5048345;28;8859;-75
2022/07/04 06:35:45;;;;;;;;;1.20;1.20;;;;;;;;5040231;28;8868;-75
2022/07/04 06:38:16;;;;;;;;;2.00;2.00;;;;;;;;5040598;28;8762;-75
2022/07/04 06:40:42;;;;;;;;;3.80;3.80;;;;;;;;5040399;28;8771;-75
2022/07/04 06:43:09;;;;;;;;;1.00;1.00;;;;;;;;5041148;28;8794;-76
2022/07/04 06:45:36;;;;;;;;;2.00;2.00;;;;;;;;5040015;28;8868;-76
2022/07/04 06:48:03;;;;;;;;;3.00;2.00;;;;;;;;5040190;28;8787;-77
2022/07/04 06:50:32;;;;;;;;;4.00;3.00;;;;;;;;5040073;28;8852;-75
2022/07/04 06:53:03;;;;;;;;;2.80;2.00;;;;;;;;5040008;28;8751;-75
2022/07/04 06:55:30;;;;;;;;;2.40;1.60;;;;;;;;5040075;28;8751;-76
2022/07/04 06:57:57;;;;;;;;;2.60;2.00;;;;;;;;5040888;28;8805;-76
2022/07/04 07:00:23;;;;;;;;;3.60;3.60;;;;;;;;5039464;28;8798;-76
2022/07/04 07:02:50;;;;;;;;;1.00;1.00;;;;;;;;5019944;28;8780;-75
2022/07/04 07:05:17;;;;;;;;;1.00;1.00;;;;;;;;5019804;28;8757;-81
2022/07/04 07:07:43;;;;;;;;;2.00;1.20;;;;;;;;5020053;28;8769;-75
2022/07/04 07:10:10;;;;;;;;;2.20;2.20;;;;;;;;5004403;28;8890;-75
2022/07/04 07:12:37;;;;;;;;;2.00;1.40;;;;;;;;5036836;28;8986;-75
2022/07/04 07:15:03;;;;;;;;;4.80;2.20;;;;;;;;5003400;28;9452;-75
2022/07/04 07:17:30;;;;;;;;;2.00;2.00;;;;;;;;5024928;28;8878;-75
2022/07/04 07:19:57;;;;;;;;;1.80;1.80;;;;;;;;5039529;28;8759;-74
2022/07/04 07:22:23;;;;;;;;;1.00;1.00;;;;;;;;5023429;28;8763;-75
2022/07/04 07:24:50;;;;;;;;;2.00;2.00;;;;;;;;5057684;28;8763;-75
2022/07/04 07:27:17;;;;;;;;;2.20;2.00;;;;;;;;5022932;28;8755;-76
2022/07/04 07:29:43;;;;;;;;;2.60;1.60;;;;;;;;5039385;28;8818;-75
2022/07/04 07:32:10;;;;;;;;;2.40;2.00;;;;;;;;5038799;28;8774;-80
2022/07/04 07:34:37;;;;;;;;;1.00;1.00;;;;;;;;5022648;28;8819;-75
2022/07/04 07:37:03;;;;;;;;;2.00;2.00;;;;;;;;5057708;28;8767;-75
2022/07/04 07:39:30;;;;;;;;;0.80;0.80;;;;;;;;5038443;28;8781;-75
2022/07/04 07:41:57;;;;;;;;;3.00;1.80;;;;;;;;5039325;28;8767;-75
2022/07/04 07:44:23;;;;;;;;;1.20;1.20;;;;;;;;5055874;28;8778;-75
2022/07/04 07:46:50;;;;;;;;;3.00;1.40;;;;;;;;5038929;28;8762;-75
2022/07/04 07:49:17;;;;;;;;;1.40;1.40;;;;;;;;5020082;28;8792;-75
2022/07/04 07:51:43;;;;;;;;;1.40;1.40;;;;;;;;5019242;28;9432;-75
2022/07/04 07:54:10;;;;;;;;;0.00;0.00;;;;;;;;5019143;28;8789;-75
2022/07/04 07:56:37;;;;;;;;;0.20;0.20;;;;;;;;5018846;28;8784;-75
2022/07/04 07:59:03;;;;;;;;;1.60;1.00;;;;;;;;5036764;28;8784;-80
2022/07/04 08:01:30;;;;;;;;;1.00;1.00;;;;;;;;5018863;28;8765;-75
2022/07/04 08:06:41;;;;;;;;;0.20;0.20;;;;;;;;5056128;28;8782;-75
2022/07/04 08:09:08;;;;;;;;;0.40;0.00;;;;;;;;5038766;28;8802;-75
2022/07/04 08:11:35;;;;;;;;;1.00;0.00;;;;;;;;5038644;28;9427;-75
2022/07/04 08:14:01;;;;;;;;;0.20;0.00;;;;;;;;5038639;28;8947;-80
2022/07/04 08:16:28;;;;;;;;;0.60;0.60;;;;;;;;5037812;28;8767;-75
2022/07/04 08:18:55;;;;;;;;;0.40;0.40;;;;;;;;5039414;28;8751;-75
2022/07/04 08:21:21;;;;;;;;;0.60;0.00;;;;;;;;5055698;28;8786;-75
2022/07/04 08:23:48;;;;;;;;;2.40;1.00;;;;;;;;5038468;28;8786;-75
2022/07/04 08:26:14;;;;;;;;;0.80;0.00;;;;;;;;5056196;28;8767;-75
2022/07/04 08:28:41;;;;;;;;;0.40;0.00;;;;;;;;5038339;28;9435;-75
2022/07/04 08:31:08;;;;;;;;;0.00;0.00;;;;;;;;5038735;28;9423;-75
2022/07/04 08:33:34;;;;;;;;;1.20;0.00;;;;;;;;5033881;28;8820;-75
2022/07/04 08:36:01;;;;;;;;;1.00;1.00;;;;;;;;5034751;28;8800;-75
2022/07/04 08:38:28;;;;;;;;;1.00;1.00;;;;;;;;5034619;28;8839;-75
2022/07/04 08:40:56;;;;;;;;;1.80;1.00;;;;;;;;5034703;28;8841;-81
2022/07/04 08:43:23;;;;;;;;;1.00;1.00;;;;;;;;5018798;28;9503;-75
2022/07/04 08:45:50;;;;;;;;;1.00;0.60;;;;;;;;5035178;28;8942;-75
2022/07/04 08:48:17;;;;;;;;;1.00;1.00;;;;;;;;5014546;28;8956;-76
2022/07/04 08:50:50;;;;;;;;;1.60;1.60;;;;;;;;5014669;28;8822;-75
2022/07/04 08:53:21;;;;;;;;;1.00;1.00;;;;;;;;5014746;28;8810;-75
2022/07/04 08:58:33;;;;;;;;;1.40;1.40;;;;;;;;5014037;28;8747;-75
2022/07/04 09:01:03;;;;;;;;;1.00;1.00;;;;;;;;5014328;28;8840;-75
2022/07/04 09:03:29;;;;;;;;;3.40;1.00;;;;;;;;5023658;28;9489;-75
2022/07/04 09:05:56;;;;;;;;;1.60;1.60;;;;;;;;5014440;28;8860;-75
2022/07/04 09:08:23;;;;;;;;;3.00;2.20;;;;;;;;5013704;28;8800;-75
2022/07/04 09:10:50;;;;;;;;;1.60;1.60;;;;;;;;5014263;28;8783;-80
2022/07/04 09:13:20;;;;;;;;;1.00;1.00;;;;;;;;5015023;28;8799;-75
2022/07/04 09:15:47;;;;;;;;;2.00;0.80;;;;;;;;4998340;28;8775;-75
2022/07/04 09:18:21;;;;;;;;;1.40;1.40;;;;;;;;5025264;28;8785;-75
2022/07/04 09:20:48;;;;;;;;;3.20;2.00;;;;;;;;5033827;28;8784;-75
2022/07/04 09:23:18;;;;;;;;;1.00;1.00;;;;;;;;5017632;28;8787;-75
2022/07/04 09:25:45;;;;;;;;;1.20;1.20;;;;;;;;5017569;28;8812;-80
2022/07/04 09:28:11;;;;;;;;;2.00;1.00;;;;;;;;5018203;28;8776;-75
2022/07/04 09:30:50;;;;;;;;;4.20;2.00;;;;;;;;5033453;28;8847;-75
2022/07/04 09:33:18;;;;;;;;;3.00;2.60;;;;;;;;5014020;28;8838;-75
2022/07/04 09:35:44;;;;;;;;;1.80;1.20;;;;;;;;5013992;28;8787;-75
2022/07/04 09:38:13;;;;;;;;;3.00;2.00;;;;;;;;4997617;28;9418;-75
2022/07/04 09:43:25;;;;;;;;;1.60;1.20;;;;;;;;5013456;28;8889;-75
2022/07/04 09:46:01;;;;;;;;;1.60;1.00;;;;;;;;4998176;28;8782;-75
2022/07/04 09:48:48;;;;;;;;;0.60;0.00;;;;;;;;5007007;28;9534;-75
2022/07/04 09:51:15;;;;;;;;;0.20;0.00;;;;;;;;5013798;28;9466;-75
2022/07/04 09:53:43;;;;;;;;;0.00;0.00;;;;;;;;5013756;28;8794;-75
2022/07/04 09:56:09;;;;;;;;;0.00;0.00;;;;;;;;5013756;28;8763;-75
2022/07/04 09:58:36;;;;;;;;;2.20;0.00;;;;;;;;5013684;28;8767;-80
2022/07/04 10:01:03;;;;;;;;;4.60;2.00;;;;;;;;5014234;28;8850;-75
2022/07/04 10:03:32;;;;;;;;;3.00;1.00;;;;;;;;5027544;28;8768;-75
2022/07/04 10:06:02;;;;;;;;;1.00;1.00;;;;;;;;5033320;28;8772;-75
2022/07/04 10:08:29;;;;;;;;;0.00;0.00;;;;;;;;5033676;28;8768;-75
2022/07/04 10:10:59;;;;;;;;;1.80;1.60;;;;;;;;5033379;28;8744;-74
2022/07/04 10:13:25;;;;;;;;;1.00;1.00;;;;;;;;5032980;28;9506;-76
2022/07/04 10:15:52;;;;;;;;;1.20;1.20;;;;;;;;5033894;28;8779;-75
2022/07/04 10:18:19;;;;;;;;;0.40;0.40;;;;;;;;5032696;28;8805;-75
2022/07/04 10:20:46;;;;;;;;;2.00;1.80;;;;;;;;5016576;28;8776;-75
2022/07/04 10:23:13;;;;;;;;;1.80;1.20;;;;;;;;5033223;28;8854;-75
2022/07/04 10:25:40;;;;;;;;;1.80;1.80;;;;;;;;5033026;28;8753;-74
2022/07/04 10:28:06;;;;;;;;;2.40;2.00;;;;;;;;5033808;28;8772;-75
2022/07/04 10:30:33;;;;;;;;;1.80;1.80;;;;;;;;5032861;28;8838;-75
2022/07/04 10:33:01;;;;;;;;;1.60;0.20;;;;;;;;5032756;28;8836;-75
2022/07/04 10:35:47;;;;;;;;;1.20;0.20;;;;;;;;5032775;28;8772;-75
2022/07/04 10:38:14;;;;;;;;;0.20;0.20;;;;;;;;5034414;28;8768;-76
2022/07/04 10:40:44;;;;;;;;;0.00;0.00;;;;;;;;5034306;28;8791;-75
2022/07/04 10:43:26;;;;;;;;;0.40;0.00;;;;;;;;5033629;28;8791;-76
2022/07/04 10:45:53;;;;;;;;;1.00;1.00;;;;;;;;5034758;28;8733;-75
2022/07/04 10:48:23;;;;;;;;;1.00;1.00;;;;;;;;5032601;28;8827;-76
2022/07/04 10:51:21;;;;;;;;;3.00;1.00;;;;;;;;5034091;28;8788;-75
2022/07/04 10:54:07;;;;;;;;;2.20;1.20;;;;;;;;5011550;28;8816;-75
2022/07/04 10:56:37;;;;;;;;;1.00;1.00;;;;;;;;5032643;28;8780;-75
2022/07/04 10:59:25;;;;;;;;;2.60;2.00;;;;;;;;5034092;28;8800;-75
2022/07/04 11:01:52;;;;;;;;;3.00;2.40;;;;;;;;5027273;28;8772;-75
2022/07/04 11:04:37;;;;;;;;;2.00;2.00;;;;;;;;5033947;28;8756;-80
2022/07/04 11:07:03;;;;;;;;;1.20;0.20;;;;;;;;5034585;28;8862;-82
2022/07/04 11:09:30;;;;;;;;;3.00;2.00;;;;;;;;5016005;28;8788;-75
2022/07/04 11:12:00;;;;;;;;;4.00;2.40;;;;;;;;5016358;28;8764;-75
2022/07/04 11:14:33;;;;;;;;;2.20;2.20;;;;;;;;5032066;28;8824;-75
2022/07/04 11:17:00;;;;;;;;;6.80;5.00;;;;;;;;5033866;28;8745;-83
2022/07/04 11:19:29;;;;;;;;;6.40;5.00;;;;;;;;5017170;28;8780;-75
2022/07/04 11:21:56;;;;;;;;;5.20;5.20;;;;;;;;5037004;28;8756;-75
2022/07/04 11:24:23;;;;;;;;;8.00;8.00;;;;;;;;5035824;28;8796;-75
2022/07/04 11:26:50;;;;;;;;;8.80;8.20;;;;;;;;5036271;28;8776;-75
2022/07/04 11:29:17;;;;;;;;;13.20;10.40;;;;;;;;5035975;28;8819;-74
2022/07/04 11:31:44;;;;;;;;;4.80;3.60;;;;;;;;5036153;28;8780;-74
2022/07/04 11:34:11;;;;;;;;;9.40;6.80;;;;;;;;5036126;28;8832;-86
2022/07/04 11:36:39;;;;;;;;;6.20;4.00;;;;;;;;5019252;28;8803;-74
2022/07/04 11:39:09;;;;;;;;;2.60;2.60;;;;;;;;5035842;28;8796;-75
2022/07/04 11:47:12;;;;;;;;;2.20;2.20;;;;;;;;5035622;28;8761;-75
2022/07/04 11:49:43;;;;;;;;;3.00;3.00;;;;;;;;5036828;28;8784;-75
2022/07/04 11:52:10;;;;;;;;;4.80;4.80;;;;;;;;5036424;28;8768;-79
2022/07/04 11:54:37;;;;;;;;;7.40;5.80;;;;;;;;5018869;28;8882;-75
2022/07/04 11:57:14;;;;;;;;;5.00;5.00;;;;;;;;5035531;28;8788;-75
2022/07/04 11:59:41;;;;;;;;;4.60;4.60;;;;;;;;5035297;28;8775;-75
2022/07/04 12:02:14;;;;;;;;;6.00;4.40;;;;;;;;5035304;28;8768;-75
2022/07/04 12:04:41;;;;;;;;;5.00;4.00;;;;;;;;5035363;28;9003;-75
2022/07/04 12:07:18;;;;;;;;;4.40;4.40;;;;;;;;5019652;28;8787;-87
2022/07/04 12:09:45;;;;;;;;;4.80;4.80;;;;;;;;5035162;28;8878;-75
2022/07/04 12:12:12;;;;;;;;;7.60;5.00;;;;;;;;5035151;28;8865;-75
2022/07/04 12:14:38;;;;;;;;;7.00;4.80;;;;;;;;5036101;28;8823;-75
2022/07/04 12:17:14;;;;;;;;;7.00;6.00;;;;;;;;5018641;28;9412;-75
2022/07/04 12:19:54;;;;;;;;;5.40;5.40;;;;;;;;5034755;28;8780;-75
2022/07/04 12:22:34;;;;;;;;;5.20;4.00;;;;;;;;5036703;28;8965;-76
2022/07/04 12:25:01;;;;;;;;;1.80;1.80;;;;;;;;5035408;28;8780;-81
2022/07/04 12:27:27;;;;;;;;;7.20;4.00;;;;;;;;5034611;28;8791;-76
2022/07/04 12:29:54;;;;;;;;;6.60;5.00;;;;;;;;5036134;28;8824;-76
2022/07/04 12:32:21;;;;;;;;;4.60;3.00;;;;;;;;5014000;28;8803;-76
2022/07/04 12:34:48;;;;;;;;;3.20;3.20;;;;;;;;4998792;28;8882;-76
2022/07/04 12:37:16;;;;;;;;;0.80;0.00;;;;;;;;4999608;28;8786;-76
2022/07/04 12:39:46;;;;;;;;;3.60;2.20;;;;;;;;5014608;28;8884;-76
2022/07/04 12:42:17;;;;;;;;;3.20;2.00;;;;;;;;5015879;28;8771;-76
2022/07/04 12:44:44;;;;;;;;;2.60;2.00;;;;;;;;5015945;28;8901;-76
2022/07/04 12:47:12;;;;;;;;;5.20;4.20;;;;;;;;5001063;28;8782;-75
2022/07/04 12:49:42;;;;;;;;;3.20;2.20;;;;;;;;5034442;28;10138;-75
2022/07/04 12:52:13;;;;;;;;;6.80;6.80;;;;;;;;5035235;28;8768;-75
2022/07/04 12:54:40;;;;;;;;;8.80;8.20;;;;;;;;5034160;28;8836;-75
2022/07/04 12:57:18;;;;;;;;;7.60;4.20;;;;;;;;5018061;28;8773;-75
2022/07/04 12:59:45;;;;;;;;;11.40;8.00;;;;;;;;5034294;28;8784;-82
2022/07/04 13:02:11;;;;;;;;;8.60;8.40;;;;;;;;5034260;28;8768;-84
2022/07/04 13:04:38;;;;;;;;;7.60;3.40;;;;;;;;5017770;28;8827;-76
2022/07/04 13:07:15;;;;;;;;;8.00;7.00;;;;;;;;5034998;28;8906;-75
2022/07/04 13:09:42;;;;;;;;;7.00;7.00;;;;;;;;5017587;28;8772;-75
2022/07/04 13:12:24;;;;;;;;;6.20;5.00;;;;;;;;5017722;28;8863;-82
2022/07/04 13:14:51;;;;;;;;;4.00;4.00;;;;;;;;5033836;28;8788;-79
2022/07/04 13:17:19;;;;;;;;;3.00;3.00;;;;;;;;5033837;28;8772;-75
2022/07/04 13:19:45;;;;;;;;;2.00;2.00;;;;;;;;5034029;28;8807;-76
2022/07/04 13:22:12;;;;;;;;;3.60;1.40;;;;;;;;5034731;28;8795;-76
2022/07/04 13:24:39;;;;;;;;;1.00;1.00;;;;;;;;5033467;28;8822;-76
2022/07/04 13:27:05;;;;;;;;;1.20;1.00;;;;;;;;5033867;28;8798;-76
2022/07/04 13:29:32;;;;;;;;;2.40;0.80;;;;;;;;5017408;28;8823;-76
2022/07/04 13:31:59;;;;;;;;;0.60;0.00;;;;;;;;5017882;28;8837;-76
2022/07/04 13:34:25;;;;;;;;;0.40;0.20;;;;;;;;5037034;28;8913;-76
2022/07/04 13:36:54;;;;;;;;;0.80;0.40;;;;;;;;5038062;28;8852;-81
2022/07/04 13:39:21;;;;;;;;;0.00;0.00;;;;;;;;5037223;28;8778;-75
2022/07/04 13:41:48;;;;;;;;;1.40;0.00;;;;;;;;5020556;28;8786;-75
2022/07/04 13:44:15;;;;;;;;;0.00;0.00;;;;;;;;5020742;28;8767;-82
2022/07/04 13:46:42;;;;;;;;;0.00;0.00;;;;;;;;5020613;28;8775;-75
2022/07/04 13:49:09;;;;;;;;;0.40;0.00;;;;;;;;5017616;28;9507;-76
2022/07/04 13:51:36;;;;;;;;;0.00;0.00;;;;;;;;5016969;28;8769;-76
2022/07/04 13:54:03;;;;;;;;;1.00;0.00;;;;;;;;5000509;28;8833;-76
2022/07/04 13:56:30;;;;;;;;;0.20;0.20;;;;;;;;5016942;28;8803;-76
2022/07/04 13:58:57;;;;;;;;;2.00;0.60;;;;;;;;5017319;28;8749;-76
2022/07/04 14:01:24;;;;;;;;;1.20;0.80;;;;;;;;5001196;28;8866;-76
2022/07/04 14:03:51;;;;;;;;;1.80;1.00;;;;;;;;5051016;28;8804;-78
2022/07/04 14:06:18;;;;;;;;;1.60;1.20;;;;;;;;5036774;28;8775;-78
2022/07/04 14:08:44;;;;;;;;;1.20;1.20;;;;;;;;5036830;28;8797;-77
2022/07/04 14:11:11;;;;;;;;;1.40;1.00;;;;;;;;5036919;28;8782;-78
2022/07/04 14:13:39;;;;;;;;;4.00;1.00;;;;;;;;5020052;28;8830;-77
2022/07/04 14:16:06;;;;;;;;;3.60;2.00;;;;;;;;5055112;28;8777;-76
2022/07/04 14:18:33;;;;;;;;;1.80;1.00;;;;;;;;5036150;28;8783;-78
2022/07/04 14:20:59;;;;;;;;;3.00;2.60;;;;;;;;5036817;28;8892;-76
2022/07/04 14:23:41;;;;;;;;;2.00;1.20;;;;;;;;5054024;28;8853;-77
2022/07/04 14:26:15;;;;;;;;;4.40;3.00;;;;;;;;5039108;28;8847;-76
2022/07/04 14:28:42;;;;;;;;;2.00;2.00;;;;;;;;5036699;28;8770;-76
2022/07/04 14:31:08;;;;;;;;;2.00;1.40;;;;;;;;5055163;28;8913;-76
2022/07/04 14:33:35;;;;;;;;;2.60;2.00;;;;;;;;5012585;28;8946;-81
2022/07/04 14:36:02;;;;;;;;;6.40;4.00;;;;;;;;5013330;28;8786;-76
2022/07/04 14:38:29;;;;;;;;;3.20;3.00;;;;;;;;5012851;28;8786;-76
2022/07/04 14:40:56;;;;;;;;;3.20;3.20;;;;;;;;5013228;28;8778;-76
2022/07/04 14:43:22;;;;;;;;;5.80;2.20;;;;;;;;5013665;28;8814;-76
2022/07/04 14:45:49;;;;;;;;;3.40;2.60;;;;;;;;5013172;28;8841;-76
2022/07/04 14:48:16;;;;;;;;;1.80;1.60;;;;;;;;5024414;28;8784;-76
2022/07/04 14:50:43;;;;;;;;;3.80;2.80;;;;;;;;5032833;28;8874;-76
2022/07/04 14:53:09;;;;;;;;;4.00;4.00;;;;;;;;5034093;28;9479;-82
2022/07/04 14:55:36;;;;;;;;;4.60;4.00;;;;;;;;5035819;28;9436;-76
2022/07/04 14:58:03;;;;;;;;;2.80;2.80;;;;;;;;5038105;28;8741;-76
2022/07/04 15:00:29;;;;;;;;;4.60;3.40;;;;;;;;5036188;28;8911;-76
2022/07/04 15:02:56;;;;;;;;;3.00;2.60;;;;;;;;5036404;28;8784;-76
2022/07/04 15:05:23;;;;;;;;;7.00;3.20;;;;;;;;5019956;28;8775;-76
2022/07/04 15:07:49;;;;;;;;;7.40;5.20;;;;;;;;5036755;28;8837;-76
2022/07/04 15:10:16;;;;;;;;;3.20;3.20;;;;;;;;5037209;28;8779;-76
2022/07/04 15:12:43;;;;;;;;;6.20;4.60;;;;;;;;5036020;28;8760;-76
2022/07/04 15:15:10;;;;;;;;;7.20;6.00;;;;;;;;5036285;28;8861;-76
2022/07/04 15:17:36;;;;;;;;;5.00;5.00;;;;;;;;5035823;28;8821;-76
2022/07/04 15:25:33;;;;;;;;;6.00;5.00;;;;;;;;5035744;28;9388;-76